Time;durP1;ratioP1;P1;durP2;ratioP2;P2;SDS_P1;SDS_P2;PMS_P1;PMS_P2;Temp;Humidity;BMP_temperature;BMP_pressure;BME280_temperature;BME280_humidity;BME280_pressure;Samples;Min_cycle;Max_cycle;Signal;HPM_P1;HPM_P2
2023/11/10 00:00:48;;;;;;;;;;;;;;;7.33;79.70;98828.28;5054765;28;19920;-60
2023/11/10 00:03:13;;;;;;;;;;;;;;;7.34;80.05;98828.06;5054496;28;20291;-59
2023/11/10 00:05:38;;;;;;;;;;;;;;;7.37;79.92;98829.44;5054662;28;20051;-61
2023/11/10 00:08:05;;;;;;;;;;;;;;;7.39;79.54;98833.44;5065333;28;19928;-60
2023/11/10 00:10:31;;;;;;;;;;;;;;;7.40;79.58;98831.59;5074539;28;20337;-59
2023/11/10 00:12:56;;;;;;;;;;;;;;;7.41;79.70;98833.19;5074119;28;19924;-58
2023/11/10 00:15:24;;;;;;;;;;;;;;;7.39;79.47;98830.00;5074366;28;19920;-59
2023/11/10 00:17:50;;;;;;;;;;;;;;;7.40;79.73;98831.59;5073133;28;19924;-60
2023/11/10 00:20:16;;;;;;;;;;;;;;;7.41;79.57;98835.84;5074398;28;19920;-61
2023/11/10 00:22:41;;;;;;;;;;;;;;;7.41;79.79;98833.19;5074707;28;20314;-60
2023/11/10 00:25:07;;;;;;;;;;;;;;;7.41;79.62;98839.28;5074523;28;19920;-59
2023/11/10 00:27:33;;;;;;;;;;;;;;;7.39;79.96;98840.56;5073188;28;19928;-57
2023/11/10 00:29:58;;;;;;;;;;;;;;;7.40;80.23;98839.50;5074406;28;20297;-59
2023/11/10 00:32:25;;;;;;;;;;;;;;;7.37;79.90;98838.13;5073957;28;19924;-60
2023/11/10 00:34:50;;;;;;;;;;;;;;;7.35;79.87;98840.19;5073890;28;20385;-59
2023/11/10 00:37:16;;;;;;;;;;;;;;;7.37;79.71;98834.69;5074304;28;20019;-59
2023/11/10 00:39:42;;;;;;;;;;;;;;;7.41;80.09;98833.19;5072812;28;19920;-60
2023/11/10 00:42:07;;;;;;;;;;;;;;;7.43;80.08;98845.13;5073440;28;19924;-58
2023/11/10 00:44:33;;;;;;;;;;;;;;;7.42;80.37;98851.44;5074240;28;20360;-60
2023/11/10 00:46:59;;;;;;;;;;;;;;;7.38;80.58;98831.84;5069902;28;19924;-59
2023/11/10 00:49:24;;;;;;;;;;;;;;;7.41;80.62;98841.09;5064842;28;19920;-59
2023/11/10 00:51:50;;;;;;;;;;;;;;;7.42;80.56;98842.72;5060147;28;19971;-59
2023/11/10 00:54:16;;;;;;;;;;;;;;;7.42;80.84;98850.66;5052448;28;20376;-59
2023/11/10 00:56:42;;;;;;;;;;;;;;;7.39;81.07;98845.81;5068930;28;19924;-59
2023/11/10 00:59:08;;;;;;;;;;;;;;;7.41;81.06;98852.47;5073663;28;20508;-58
2023/11/10 01:01:34;;;;;;;;;;;;;;;7.43;81.44;98860.16;5072389;28;20038;-61
2023/11/10 01:04:01;;;;;;;;;;;;;;;7.44;81.19;98851.19;5065074;28;19921;-61
2023/11/10 01:06:27;;;;;;;;;;;;;;;7.48;81.27;98855.78;5053581;28;19929;-59
2023/11/10 01:08:53;;;;;;;;;;;;;;;7.51;81.30;98862.44;5052230;28;19929;-60
2023/11/10 01:11:18;;;;;;;;;;;;;;;7.51;81.41;98860.59;5053412;28;19932;-58
2023/11/10 01:13:44;;;;;;;;;;;;;;;7.43;81.66;98854.88;5051988;28;20412;-59
2023/11/10 01:16:10;;;;;;;;;;;;;;;7.35;82.26;98861.28;5052051;28;19921;-59
2023/11/10 01:18:35;;;;;;;;;;;;;;;7.33;82.62;98852.03;5052047;28;19920;-58
2023/11/10 01:21:01;;;;;;;;;;;;;;;7.25;82.85;98847.88;5058474;28;19927;-59
2023/11/10 01:23:26;;;;;;;;;;;;;;;7.18;83.22;98853.28;5073230;28;19920;-57
2023/11/10 01:25:52;;;;;;;;;;;;;;;7.04;83.56;98859.78;5071751;28;19968;-60
2023/11/10 01:28:20;;;;;;;;;;;;;;;7.01;84.43;98853.13;5072999;28;19924;-59
2023/11/10 01:30:46;;;;;;;;;;;;;;;6.96;84.45;98863.53;5072554;28;19928;-57
2023/11/10 01:33:12;;;;;;;;;;;;;;;6.99;84.51;98859.66;5072773;28;19924;-60
2023/11/10 01:35:37;;;;;;;;;;;;;;;6.94;84.81;98864.78;5072951;28;19924;-59
2023/11/10 01:38:03;;;;;;;;;;;;;;;6.83;85.07;98859.28;5072993;28;19924;-60
2023/11/10 01:40:36;;;;;;;;;;;;;;;6.88;85.28;98866.50;5073195;28;20305;-59
2023/11/10 01:43:05;;;;;;;;;;;;;;;6.88;84.98;98869.13;5072630;28;19978;-59
2023/11/10 01:45:31;;;;;;;;;;;;;;;6.82;85.21;98862.97;5072726;28;20019;-58
2023/11/10 01:47:56;;;;;;;;;;;;;;;6.82;85.25;98868.22;5071316;28;20019;-58
2023/11/10 01:50:24;;;;;;;;;;;;;;;6.79;85.45;98860.78;5071514;28;19968;-58
2023/11/10 01:52:49;;;;;;;;;;;;;;;6.84;84.86;98868.00;5072958;28;19969;-59
2023/11/10 01:55:16;;;;;;;;;;;;;;;6.89;84.70;98870.75;5072763;28;19924;-59
2023/11/10 01:57:43;;;;;;;;;;;;;;;6.89;84.61;98872.59;5071206;28;19930;-64
2023/11/10 02:00:08;;;;;;;;;;;;;;;6.90;84.95;98884.72;5054709;28;20003;-60
2023/11/10 02:02:36;;;;;;;;;;;;;;;6.85;84.92;98881.97;5071319;28;19958;-60
2023/11/10 02:05:02;;;;;;;;;;;;;;;6.85;84.89;98884.59;5070269;28;19979;-61
2023/11/10 02:07:28;;;;;;;;;;;;;;;6.80;84.90;98880.81;5071890;28;19958;-59
2023/11/10 02:09:54;;;;;;;;;;;;;;;6.81;85.05;98882.41;5070877;28;20426;-58
2023/11/10 02:12:21;;;;;;;;;;;;;;;6.83;84.65;98888.25;5070667;28;19924;-59
2023/11/10 02:14:46;;;;;;;;;;;;;;;6.74;84.72;98886.97;5071196;28;19970;-61
2023/11/10 02:17:14;;;;;;;;;;;;;;;6.79;85.24;98896.81;5070740;28;19968;-59
2023/11/10 02:19:39;;;;;;;;;;;;;;;6.79;84.30;98891.56;5054200;28;19920;-59
2023/11/10 02:22:15;;;;;;;;;;;;;;;6.74;85.07;98894.88;5066446;28;19935;-57
2023/11/10 02:24:42;;;;;;;;;;;;;;;6.79;84.94;98897.66;5034147;28;19920;-59
2023/11/10 02:27:07;;;;;;;;;;;;;;;6.79;84.67;98904.72;5052103;28;19925;-59
2023/11/10 02:29:42;;;;;;;;;;;;;;;6.77;84.75;98909.44;5050771;28;20360;-60
2023/11/10 02:32:09;;;;;;;;;;;;;;;6.83;85.06;98911.19;5052190;28;20129;-59
2023/11/10 02:34:35;;;;;;;;;;;;;;;6.89;85.39;98910.28;5034008;28;20031;-60
2023/11/10 02:37:01;;;;;;;;;;;;;;;6.95;84.71;98913.84;5051923;28;20035;-60
2023/11/10 02:39:26;;;;;;;;;;;;;;;7.02;84.81;98917.97;5051881;28;19975;-59
2023/11/10 02:41:53;;;;;;;;;;;;;;;7.10;83.92;98913.41;5051660;28;20027;-56
2023/11/10 02:44:18;;;;;;;;;;;;;;;7.07;84.00;98911.25;5050545;28;19917;-58
2023/11/10 02:46:44;;;;;;;;;;;;;;;7.10;83.66;98923.97;5051658;28;20314;-57
2023/11/10 02:49:09;;;;;;;;;;;;;;;7.14;83.66;98925.09;5062893;28;19920;-60
2023/11/10 02:51:35;;;;;;;;;;;;;;;7.12;83.53;98925.34;5071577;28;19931;-59
2023/11/10 02:54:00;;;;;;;;;;;;;;;7.12;83.34;98930.63;5070372;28;19967;-58
2023/11/10 02:56:26;;;;;;;;;;;;;;;7.14;83.27;98931.19;5071318;28;19924;-58
2023/11/10 02:58:51;;;;;;;;;;;;;;;7.18;83.01;98929.72;5071332;28;20391;-55
2023/11/10 03:01:21;;;;;;;;;;;;;;;7.08;83.70;98936.56;5070340;28;20023;-59
2023/11/10 03:03:46;;;;;;;;;;;;;;;7.11;83.57;98934.25;5069506;28;19946;-58
2023/11/10 03:06:12;;;;;;;;;;;;;;;7.00;83.76;98932.41;5070430;28;20011;-59
2023/11/10 03:08:37;;;;;;;;;;;;;;;7.09;83.68;98927.59;5070289;28;19927;-58
2023/11/10 03:11:03;;;;;;;;;;;;;;;7.11;83.46;98928.19;5070268;28;19921;-58
2023/11/10 03:13:29;;;;;;;;;;;;;;;7.16;83.12;98928.34;5071719;28;20271;-58
2023/11/10 03:15:54;;;;;;;;;;;;;;;7.18;82.94;98924.44;5071535;28;19920;-58
2023/11/10 03:18:20;;;;;;;;;;;;;;;7.23;82.63;98929.00;5072166;28;20023;-58
2023/11/10 03:20:47;;;;;;;;;;;;;;;7.25;82.50;98927.75;5074344;28;19926;-60
2023/11/10 03:23:12;;;;;;;;;;;;;;;7.24;82.71;98939.34;5075988;28;19928;-59
2023/11/10 03:25:38;;;;;;;;;;;;;;;7.28;82.70;98929.16;5075362;28;19920;-61
2023/11/10 03:28:03;;;;;;;;;;;;;;;7.27;82.60;98924.91;5075707;28;19967;-58
2023/11/10 03:30:29;;;;;;;;;;;;;;;7.27;82.49;98938.91;5075388;28;19920;-58
2023/11/10 03:32:54;;;;;;;;;;;;;;;7.28;82.82;98947.59;5075688;28;19924;-59
2023/11/10 03:35:20;;;;;;;;;;;;;;;7.27;82.36;98941.53;5073966;28;20317;-60
2023/11/10 03:37:46;;;;;;;;;;;;;;;7.28;82.96;98947.59;5073982;28;20015;-59
2023/11/10 03:40:12;;;;;;;;;;;;;;;7.30;82.79;98950.03;5074302;28;19964;-60
2023/11/10 03:42:37;;;;;;;;;;;;;;;7.33;82.93;98947.72;5073657;28;19924;-60
2023/11/10 03:45:03;;;;;;;;;;;;;;;7.36;82.44;98949.13;5073806;28;19981;-62
2023/11/10 03:47:29;;;;;;;;;;;;;;;7.38;82.57;98957.59;5075188;28;19925;-60
2023/11/10 03:49:54;;;;;;;;;;;;;;;7.37;82.47;98956.00;5055007;28;19931;-58
2023/11/10 03:52:20;;;;;;;;;;;;;;;7.38;82.23;98963.69;5054926;28;19967;-59
2023/11/10 03:54:45;;;;;;;;;;;;;;;7.40;82.56;98958.97;5058824;28;20378;-59
2023/11/10 03:57:11;;;;;;;;;;;;;;;7.41;82.14;98963.22;5074997;28;19924;-59
2023/11/10 03:59:40;;;;;;;;;;;;;;;7.40;82.02;98964.25;5074508;28;19920;-59
2023/11/10 04:02:06;;;;;;;;;;;;;;;7.41;81.63;98967.69;5074745;28;19931;-58
2023/11/10 04:04:32;;;;;;;;;;;;;;;7.41;81.50;98970.31;5074780;28;20358;-59
2023/11/10 04:06:57;;;;;;;;;;;;;;;7.43;81.68;98970.91;5074517;28;20043;-59
2023/11/10 04:09:23;;;;;;;;;;;;;;;7.43;81.15;98976.19;5074540;28;19926;-61
2023/11/10 04:11:48;;;;;;;;;;;;;;;7.44;81.10;98973.31;5073183;28;19928;-59
2023/11/10 04:14:14;;;;;;;;;;;;;;;7.33;80.71;98973.31;5056348;28;19920;-58
2023/11/10 04:16:39;;;;;;;;;;;;;;;7.32;81.14;98977.75;5074597;28;19928;-59
2023/11/10 04:19:05;;;;;;;;;;;;;;;7.28;80.66;98973.97;5074328;28;20026;-58
2023/11/10 04:21:30;;;;;;;;;;;;;;;7.32;80.78;98988.28;5074165;28;19920;-59
2023/11/10 04:23:57;;;;;;;;;;;;;;;7.23;80.92;98993.09;5074203;28;19926;-57
2023/11/10 04:26:22;;;;;;;;;;;;;;;7.23;80.78;98992.28;5074565;28;19931;-59
2023/11/10 04:28:48;;;;;;;;;;;;;;;7.23;80.39;98992.28;5074157;28;20373;-59
2023/11/10 04:31:17;;;;;;;;;;;;;;;7.18;80.00;98995.63;5073418;28;20354;-59
2023/11/10 04:33:45;;;;;;;;;;;;;;;7.19;80.17;99005.13;5074060;28;19920;-58
2023/11/10 04:36:14;;;;;;;;;;;;;;;7.13;79.49;98998.09;5073959;28;19980;-60
2023/11/10 04:38:41;;;;;;;;;;;;;;;7.15;79.77;99001.34;5073619;28;19916;-58
2023/11/10 04:41:08;;;;;;;;;;;;;;;7.16;79.37;99010.84;5073901;28;19965;-59
2023/11/10 04:43:33;;;;;;;;;;;;;;;7.18;78.89;99014.06;5073881;28;20022;-59
2023/11/10 04:46:02;;;;;;;;;;;;;;;7.20;79.08;99019.91;5074148;28;20023;-59
2023/11/10 04:48:28;;;;;;;;;;;;;;;7.19;78.65;99018.31;5073670;28;19965;-59
2023/11/10 04:50:54;;;;;;;;;;;;;;;7.05;78.36;99022.13;5073703;28;19920;-59
2023/11/10 04:53:19;;;;;;;;;;;;;;;7.03;78.15;99032.91;5073487;28;19920;-58
2023/11/10 04:55:45;;;;;;;;;;;;;;;7.02;77.95;99039.19;5073958;28;20011;-61
2023/11/10 04:58:10;;;;;;;;;;;;;;;7.01;77.73;99029.69;5073451;28;20318;-54
2023/11/10 05:00:36;;;;;;;;;;;;;;;6.83;78.33;99029.72;5073718;28;20282;-57
2023/11/10 05:03:03;;;;;;;;;;;;;;;6.83;78.92;99035.00;5073786;28;19924;-57
2023/11/10 05:05:29;;;;;;;;;;;;;;;6.83;78.50;99032.38;5073478;28;19920;-56
2023/11/10 05:07:54;;;;;;;;;;;;;;;6.77;78.48;99036.69;5055233;28;20026;-58
2023/11/10 05:10:20;;;;;;;;;;;;;;;6.81;78.60;99048.38;5073258;28;20304;-61
2023/11/10 05:12:46;;;;;;;;;;;;;;;6.85;78.68;99051.38;5071617;28;19931;-58
2023/11/10 05:15:12;;;;;;;;;;;;;;;6.88;78.26;99055.41;5073173;28;19920;-57
2023/11/10 05:17:43;;;;;;;;;;;;;;;6.86;78.87;99060.09;5071945;28;19924;-57
2023/11/10 05:20:12;;;;;;;;;;;;;;;6.90;78.82;99066.53;5073229;28;19920;-59
2023/11/10 05:22:42;;;;;;;;;;;;;;;6.99;78.07;99060.72;5071745;28;19924;-58
2023/11/10 05:25:07;;;;;;;;;;;;;;;7.05;77.62;99057.19;5073053;28;19924;-60
2023/11/10 05:27:33;;;;;;;;;;;;;;;7.03;77.19;99069.81;5072863;28;20014;-58
2023/11/10 05:29:59;;;;;;;;;;;;;;;7.01;77.62;99065.78;5071120;28;20053;-58
2023/11/10 05:32:24;;;;;;;;;;;;;;;6.97;77.74;99073.34;5072234;28;20339;-60
2023/11/10 05:34:54;;;;;;;;;;;;;;;7.04;77.39;99075.88;5069456;28;19981;-60
2023/11/10 05:37:22;;;;;;;;;;;;;;;7.07;76.94;99078.06;5072836;28;20378;-60
2023/11/10 05:39:50;;;;;;;;;;;;;;;7.14;76.65;99076.16;5072414;28;19920;-58
2023/11/10 05:42:16;;;;;;;;;;;;;;;7.20;76.25;99077.09;5072302;28;19928;-58
2023/11/10 05:44:42;;;;;;;;;;;;;;;7.26;75.83;99077.03;5072385;28;19920;-60
2023/11/10 05:47:07;;;;;;;;;;;;;;;7.26;75.81;99081.47;5072563;28;20018;-59
2023/11/10 05:49:36;;;;;;;;;;;;;;;7.29;75.19;99075.75;5059972;28;20033;-57
2023/11/10 05:52:02;;;;;;;;;;;;;;;7.27;75.25;99081.25;5051207;28;20034;-58
2023/11/10 05:54:29;;;;;;;;;;;;;;;7.25;74.81;99079.88;5052412;28;19921;-60
2023/11/10 05:56:54;;;;;;;;;;;;;;;7.28;74.74;99087.34;5052420;28;20039;-60
2023/11/10 05:59:21;;;;;;;;;;;;;;;7.32;74.15;99088.47;5052119;28;19970;-59
2023/11/10 06:01:47;;;;;;;;;;;;;;;7.29;73.76;99083.66;5052249;28;19924;-59
2023/11/10 06:04:14;;;;;;;;;;;;;;;7.28;73.44;99088.13;5063295;28;19931;-60
2023/11/10 06:06:41;;;;;;;;;;;;;;;7.23;73.10;99095.09;5052510;28;20010;-57
2023/11/10 06:09:07;;;;;;;;;;;;;;;7.24;73.03;99097.53;5051995;28;19935;-59
2023/11/10 06:11:32;;;;;;;;;;;;;;;7.23;73.10;99100.38;5051661;28;20023;-58
2023/11/10 06:14:01;;;;;;;;;;;;;;;7.25;73.29;99103.59;5050542;28;19927;-58
2023/11/10 06:16:26;;;;;;;;;;;;;;;7.27;72.87;99107.63;5051119;28;20042;-58
2023/11/10 06:18:52;;;;;;;;;;;;;;;7.22;72.09;99111.94;5050861;28;20383;-59
2023/11/10 06:21:21;;;;;;;;;;;;;;;7.27;72.16;99114.75;5050809;28;19928;-59
2023/11/10 06:23:50;;;;;;;;;;;;;;;7.22;72.75;99117.22;5050794;28;19977;-58
2023/11/10 06:26:19;;;;;;;;;;;;;;;7.15;72.97;99119.94;5033259;28;20443;-56
2023/11/10 06:28:46;;;;;;;;;;;;;;;7.13;73.11;99124.63;5051223;28;19943;-59
2023/11/10 06:31:13;;;;;;;;;;;;;;;7.02;73.01;99128.00;5051217;28;19920;-59
2023/11/10 06:33:42;;;;;;;;;;;;;;;6.96;73.43;99126.25;5050984;28;19921;-59
2023/11/10 06:36:08;;;;;;;;;;;;;;;6.96;73.97;99139.44;5049826;28;19920;-58
2023/11/10 06:38:34;;;;;;;;;;;;;;;7.00;74.08;99133.50;5051471;28;20318;-58
2023/11/10 06:40:59;;;;;;;;;;;;;;;7.05;73.93;99144.16;5065224;28;19921;-58
2023/11/10 06:43:25;;;;;;;;;;;;;;;7.07;74.09;99143.97;5067426;28;19947;-56
2023/11/10 06:45:50;;;;;;;;;;;;;;;7.13;73.68;99145.72;5045463;28;19920;-58
2023/11/10 06:48:16;;;;;;;;;;;;;;;7.07;73.91;99140.53;5059047;28;19921;-58
2023/11/10 06:50:42;;;;;;;;;;;;;;;6.99;74.48;99149.53;5062698;28;19921;-60
2023/11/10 06:53:10;;;;;;;;;;;;;;;6.99;74.81;99152.97;5063582;28;19925;-59
2023/11/10 06:55:35;;;;;;;;;;;;;;;6.99;74.78;99145.06;5060094;28;19924;-58
2023/11/10 06:58:01;;;;;;;;;;;;;;;7.05;74.67;99156.56;5050015;28;20007;-61
2023/11/10 07:00:29;;;;;;;;;;;;;;;7.09;74.82;99156.91;5051108;28;19927;-57
2023/11/10 07:02:56;;;;;;;;;;;;;;;7.17;74.33;99151.34;5051785;28;19925;-58
2023/11/10 07:05:22;;;;;;;;;;;;;;;7.21;74.41;99158.59;5060137;28;19967;-60
2023/11/10 07:07:48;;;;;;;;;;;;;;;7.25;74.19;99166.88;5070301;28;19975;-59
2023/11/10 07:10:13;;;;;;;;;;;;;;;7.35;73.99;99163.72;5062498;28;20381;-60
2023/11/10 07:12:39;;;;;;;;;;;;;;;7.35;74.13;99161.88;5051296;28;19924;-58
2023/11/10 07:15:05;;;;;;;;;;;;;;;7.38;73.25;99158.00;5055886;28;19920;-60
2023/11/10 07:17:31;;;;;;;;;;;;;;;7.44;73.18;99160.56;5071623;28;19986;-59
2023/11/10 07:19:57;;;;;;;;;;;;;;;7.46;73.11;99158.50;5068092;28;19971;-63
2023/11/10 07:22:22;;;;;;;;;;;;;;;7.50;73.10;99159.69;5060056;28;19933;-59
2023/11/10 07:24:48;;;;;;;;;;;;;;;7.53;72.95;99157.59;5059424;28;19998;-61
2023/11/10 07:27:14;;;;;;;;;;;;;;;7.55;73.07;99168.75;5061092;28;19924;-59
2023/11/10 07:29:39;;;;;;;;;;;;;;;7.52;73.09;99164.72;5061149;28;20300;-60
2023/11/10 07:32:05;;;;;;;;;;;;;;;7.59;73.11;99169.88;5044123;28;19932;-60
2023/11/10 07:34:31;;;;;;;;;;;;;;;7.57;72.58;99174.59;5059217;28;20039;-60
2023/11/10 07:36:59;;;;;;;;;;;;;;;7.59;72.15;99172.53;5059604;28;19925;-59
2023/11/10 07:39:30;;;;;;;;;;;;;;;7.66;72.13;99178.53;5058094;28;19921;-61
2023/11/10 07:41:56;;;;;;;;;;;;;;;7.69;72.19;99180.72;5059359;28;20413;-58
2023/11/10 07:44:21;;;;;;;;;;;;;;;7.73;72.37;99181.88;5058149;28;19963;-58
2023/11/10 07:46:47;;;;;;;;;;;;;;;7.77;72.32;99187.53;5060281;28;20054;-60
2023/11/10 07:49:13;;;;;;;;;;;;;;;7.79;72.05;99186.25;5057829;28;19924;-61
2023/11/10 07:51:39;;;;;;;;;;;;;;;7.79;71.64;99186.25;5059505;28;19924;-60
2023/11/10 07:54:04;;;;;;;;;;;;;;;7.83;71.73;99182.16;5058148;28;20004;-59
2023/11/10 07:56:31;;;;;;;;;;;;;;;7.86;71.55;99189.63;5025280;28;20394;-60
2023/11/10 07:58:57;;;;;;;;;;;;;;;7.84;71.27;99180.31;5058952;28;19920;-60
2023/11/10 08:01:22;;;;;;;;;;;;;;;7.87;71.67;99182.53;5061156;28;19931;-60
2023/11/10 08:03:48;;;;;;;;;;;;;;;7.90;71.31;99189.97;5059385;28;19921;-57
2023/11/10 08:06:13;;;;;;;;;;;;;;;7.85;71.31;99193.31;5061358;28;19924;-60
2023/11/10 08:08:39;;;;;;;;;;;;;;;7.87;71.20;99188.59;5062158;28;19927;-59
2023/11/10 08:11:05;;;;;;;;;;;;;;;7.86;71.51;99181.72;5062229;28;19920;-57
2023/11/10 08:13:34;;;;;;;;;;;;;;;7.83;71.56;99184.81;5052928;28;19921;-54
2023/11/10 08:16:00;;;;;;;;;;;;;;;7.82;71.81;99187.66;5067614;28;19920;-57
2023/11/10 08:18:26;;;;;;;;;;;;;;;7.84;71.99;99185.59;5073026;28;19928;-56
2023/11/10 08:20:51;;;;;;;;;;;;;;;8.00;70.93;99184.16;5074168;28;19920;-58
2023/11/10 08:23:18;;;;;;;;;;;;;;;8.02;70.89;99196.09;5074720;28;19931;-57
2023/11/10 08:25:45;;;;;;;;;;;;;;;8.01;69.80;99196.34;5062313;28;19921;-58
2023/11/10 08:28:10;;;;;;;;;;;;;;;8.09;70.20;99196.81;5052346;28;19925;-57
2023/11/10 08:30:36;;;;;;;;;;;;;;;8.05;70.27;99197.50;5053871;28;19921;-57
2023/11/10 08:33:01;;;;;;;;;;;;;;;8.07;70.04;99206.78;5054019;28;19931;-57
2023/11/10 08:35:27;;;;;;;;;;;;;;;8.02;70.51;99203.22;5052326;28;19934;-56
2023/11/10 08:37:53;;;;;;;;;;;;;;;8.08;70.23;99207.59;5054158;28;19977;-57
2023/11/10 08:40:18;;;;;;;;;;;;;;;8.07;70.35;99212.06;5060473;28;19920;-56
2023/11/10 08:42:44;;;;;;;;;;;;;;;8.09;70.57;99212.66;5074343;28;19967;-57
2023/11/10 08:45:11;;;;;;;;;;;;;;;7.95;70.84;99208.59;5066768;28;19920;-59
2023/11/10 08:47:37;;;;;;;;;;;;;;;7.89;71.34;99199.75;5052552;28;19925;-58
2023/11/10 08:50:03;;;;;;;;;;;;;;;8.04;71.25;99203.81;5073349;28;20394;-57
2023/11/10 08:52:29;;;;;;;;;;;;;;;8.03;70.83;99202.19;5072116;28;19924;-57
2023/11/10 08:54:55;;;;;;;;;;;;;;;8.03;71.02;99204.81;5068920;28;19966;-58
2023/11/10 08:57:21;;;;;;;;;;;;;;;8.05;71.41;99208.06;5053862;28;19925;-59
2023/11/10 08:59:47;;;;;;;;;;;;;;;8.14;70.95;99199.56;5053024;28;20353;-59
2023/11/10 09:02:12;;;;;;;;;;;;;;;8.17;71.06;99193.84;5058829;28;19928;-58
2023/11/10 09:04:38;;;;;;;;;;;;;;;8.25;70.31;99200.63;5073150;28;19955;-57
2023/11/10 09:07:04;;;;;;;;;;;;;;;8.37;70.34;99200.66;5067403;28;20440;-59
2023/11/10 09:09:30;;;;;;;;;;;;;;;8.43;69.43;99197.13;5053166;28;19921;-56
2023/11/10 09:11:57;;;;;;;;;;;;;;;8.45;69.62;99196.94;5051526;28;19933;-58
2023/11/10 09:14:24;;;;;;;;;;;;;;;8.34;70.09;99198.47;5053053;28;19925;-59
2023/11/10 09:16:49;;;;;;;;;;;;;;;8.34;70.78;99201.91;5052469;28;20393;-59
2023/11/10 09:19:15;;;;;;;;;;;;;;;8.32;70.25;99201.34;5053597;28;19982;-60
2023/11/10 09:21:40;;;;;;;;;;;;;;;8.37;70.38;99190.09;5052767;28;19927;-57
2023/11/10 09:24:07;;;;;;;;;;;;;;;8.39;69.74;99198.63;5052780;28;19924;-56
2023/11/10 09:26:32;;;;;;;;;;;;;;;8.44;70.09;99195.31;5052538;28;20022;-57
2023/11/10 09:28:59;;;;;;;;;;;;;;;8.40;70.55;99192.31;5051613;28;20490;-57
2023/11/10 09:31:25;;;;;;;;;;;;;;;8.41;70.60;99192.09;5051846;28;19920;-58
2023/11/10 09:33:53;;;;;;;;;;;;;;;8.45;70.24;99200.38;5052940;28;19931;-57
2023/11/10 09:36:19;;;;;;;;;;;;;;;8.40;70.34;99194.97;5052742;28;19920;-56
2023/11/10 09:38:44;;;;;;;;;;;;;;;8.33;70.74;99200.31;5052475;28;19932;-59
2023/11/10 09:41:14;;;;;;;;;;;;;;;8.30;70.77;99195.50;5051408;28;20351;-57
2023/11/10 09:43:39;;;;;;;;;;;;;;;8.30;70.56;99200.78;5052486;28;19925;-57
2023/11/10 09:46:05;;;;;;;;;;;;;;;8.25;71.84;99194.56;5052468;28;19932;-57
2023/11/10 09:48:30;;;;;;;;;;;;;;;8.24;71.09;99204.31;5059214;28;20000;-57
2023/11/10 09:50:56;;;;;;;;;;;;;;;8.17;71.65;99207.03;5070526;28;19920;-56
2023/11/10 09:53:22;;;;;;;;;;;;;;;8.07;71.53;99198.88;5072162;28;19925;-55
2023/11/10 09:55:48;;;;;;;;;;;;;;;7.97;72.84;99210.00;5054233;28;19920;-59
2023/11/10 09:58:13;;;;;;;;;;;;;;;8.03;72.65;99208.28;5057386;28;19920;-57
2023/11/10 10:00:39;;;;;;;;;;;;;;;8.05;71.96;99219.41;5056795;28;19924;-59
2023/11/10 10:03:05;;;;;;;;;;;;;;;8.10;72.21;99218.75;5050942;28;19921;-58
2023/11/10 10:05:31;;;;;;;;;;;;;;;8.10;71.82;99208.97;5050857;28;20019;-61
2023/11/10 10:07:56;;;;;;;;;;;;;;;8.20;71.78;99209.22;5051130;28;20354;-58
2023/11/10 10:10:22;;;;;;;;;;;;;;;8.32;71.76;99213.75;5052284;28;19979;-58
2023/11/10 10:12:48;;;;;;;;;;;;;;;8.44;71.12;99211.94;5063796;28;19920;-60
2023/11/10 10:15:26;;;;;;;;;;;;;;;8.49;71.51;99204.16;5070877;28;20034;-56
2023/11/10 10:18:04;;;;;;;;;;;;;;;8.57;71.13;99216.22;5037579;28;19920;-57
2023/11/10 10:20:30;;;;;;;;;;;;;;;8.61;71.49;99212.88;5071006;28;19946;-57
2023/11/10 10:22:57;;;;;;;;;;;;;;;8.59;70.43;99212.34;5056994;28;20441;-59
2023/11/10 10:25:23;;;;;;;;;;;;;;;8.58;70.77;99217.84;5052069;28;19928;-58
2023/11/10 10:27:51;;;;;;;;;;;;;;;8.56;70.94;99217.25;5049736;28;20275;-57
2023/11/10 10:30:20;;;;;;;;;;;;;;;8.57;71.32;99213.59;5052012;28;19931;-59
2023/11/10 10:32:46;;;;;;;;;;;;;;;8.51;71.31;99212.66;5050497;28;20027;-58
2023/11/10 10:35:12;;;;;;;;;;;;;;;8.57;70.36;99213.59;5051785;28;20027;-59
2023/11/10 10:37:38;;;;;;;;;;;;;;;8.60;70.10;99210.50;5051260;28;20370;-58
2023/11/10 10:40:05;;;;;;;;;;;;;;;8.58;70.45;99207.25;5051286;28;19932;-59
2023/11/10 10:42:34;;;;;;;;;;;;;;;8.57;70.70;99222.31;5059348;28;20016;-56
2023/11/10 10:45:04;;;;;;;;;;;;;;;8.62;71.06;99221.66;5053233;28;20057;-59
2023/11/10 10:47:37;;;;;;;;;;;;;;;8.71;70.81;99214.97;5032537;28;19920;-60
2023/11/10 10:50:06;;;;;;;;;;;;;;;8.77;69.82;99211.44;5069791;28;19924;-58
2023/11/10 10:52:32;;;;;;;;;;;;;;;8.84;70.19;99212.09;5061795;28;19956;-59
2023/11/10 10:54:59;;;;;;;;;;;;;;;8.82;70.10;99206.25;5053563;28;20293;-59
2023/11/10 10:57:25;;;;;;;;;;;;;;;8.82;69.97;99216.84;5060940;28;19962;-58
2023/11/10 10:59:51;;;;;;;;;;;;;;;8.84;70.39;99216.59;5070172;28;19960;-59
2023/11/10 11:02:17;;;;;;;;;;;;;;;8.79;69.95;99211.97;5062647;28;20022;-57
2023/11/10 11:04:59;;;;;;;;;;;;;;;8.75;70.13;99212.69;5068074;28;20420;-60
2023/11/10 11:07:41;;;;;;;;;;;;;;;8.61;70.04;99220.81;5027978;28;19928;-57
2023/11/10 11:10:09;;;;;;;;;;;;;;;8.61;70.60;99215.53;5050212;28;19925;-60
2023/11/10 11:12:34;;;;;;;;;;;;;;;8.65;70.83;99221.19;5049702;28;19925;-58
2023/11/10 11:15:12;;;;;;;;;;;;;;;8.71;70.56;99227.41;5051295;28;19924;-59
2023/11/10 11:17:45;;;;;;;;;;;;;;;8.72;70.70;99229.78;5024709;28;19946;-60
2023/11/10 11:20:12;;;;;;;;;;;;;;;8.75;69.88;99231.19;5049300;28;19925;-59
2023/11/10 11:22:38;;;;;;;;;;;;;;;8.69;70.83;99230.25;5049574;28;19997;-60
2023/11/10 11:25:08;;;;;;;;;;;;;;;8.60;71.05;99229.00;5049998;28;20440;-59
2023/11/10 11:27:34;;;;;;;;;;;;;;;8.67;70.69;99223.59;5061106;28;19924;-56
2023/11/10 11:30:06;;;;;;;;;;;;;;;8.72;70.48;99226.34;5065221;28;20425;-58
2023/11/10 11:32:32;;;;;;;;;;;;;;;8.70;70.91;99223.94;5054256;28;20275;-59
2023/11/10 11:34:58;;;;;;;;;;;;;;;8.64;70.83;99228.28;5033608;28;19932;-54
2023/11/10 11:37:31;;;;;;;;;;;;;;;8.55;72.04;99234.16;5028360;28;19920;-57
2023/11/10 11:39:58;;;;;;;;;;;;;;;8.53;71.73;99223.00;5052800;28;20333;-59
2023/11/10 11:42:33;;;;;;;;;;;;;;;8.54;70.82;99229.91;5054941;28;19920;-59
2023/11/10 11:44:58;;;;;;;;;;;;;;;8.46;71.71;99228.38;5053663;28;19924;-60
2023/11/10 11:47:24;;;;;;;;;;;;;;;8.34;71.49;99232.81;5063271;28;20294;-60
2023/11/10 11:49:49;;;;;;;;;;;;;;;8.29;72.17;99230.03;5073404;28;19924;-59
2023/11/10 11:52:15;;;;;;;;;;;;;;;8.21;72.49;99231.19;5065927;28;19920;-58
2023/11/10 11:54:41;;;;;;;;;;;;;;;8.23;72.40;99230.94;5036815;28;19931;-59
2023/11/10 11:57:06;;;;;;;;;;;;;;;8.32;72.66;99224.31;5053064;28;20019;-58
2023/11/10 11:59:32;;;;;;;;;;;;;;;8.29;72.56;99230.84;5054929;28;20349;-62
2023/11/10 12:01:58;;;;;;;;;;;;;;;8.26;72.60;99227.84;5054290;28;19927;-59
2023/11/10 12:04:24;;;;;;;;;;;;;;;8.16;72.91;99223.91;5060187;28;19925;-60
2023/11/10 12:06:50;;;;;;;;;;;;;;;8.21;73.03;99225.91;5064305;28;19974;-59
2023/11/10 12:09:17;;;;;;;;;;;;;;;8.20;72.83;99219.78;5064212;28;19933;-60
2023/11/10 12:11:44;;;;;;;;;;;;;;;8.24;72.72;99227.28;5063610;28;20453;-58
2023/11/10 12:14:10;;;;;;;;;;;;;;;8.16;73.33;99229.19;5063547;28;19925;-60
2023/11/10 12:16:36;;;;;;;;;;;;;;;8.13;73.72;99226.22;5063749;28;20386;-58
2023/11/10 12:19:05;;;;;;;;;;;;;;;8.10;73.06;99224.81;5063996;28;19928;-60
2023/11/10 12:21:31;;;;;;;;;;;;;;;8.10;73.77;99226.66;5044806;28;19920;-58
2023/11/10 12:24:03;;;;;;;;;;;;;;;8.10;73.49;99226.66;5063833;28;19970;-58
2023/11/10 12:26:51;;;;;;;;;;;;;;;8.02;73.26;99224.34;5043818;28;20029;-61
2023/11/10 12:29:22;;;;;;;;;;;;;;;7.99;73.73;99232.72;5061873;28;20452;-58
2023/11/10 12:31:48;;;;;;;;;;;;;;;7.92;74.08;99230.16;5062128;28;19921;-60
2023/11/10 12:34:14;;;;;;;;;;;;;;;7.82;74.71;99235.94;5062426;28;20382;-60
2023/11/10 12:36:40;;;;;;;;;;;;;;;7.73;75.19;99239.94;5060983;28;19974;-59
2023/11/10 12:39:18;;;;;;;;;;;;;;;7.74;75.06;99242.38;5064410;28;19935;-61
2023/11/10 12:41:44;;;;;;;;;;;;;;;7.68;74.72;99234.53;5061657;28;20373;-59
2023/11/10 12:44:12;;;;;;;;;;;;;;;7.71;75.41;99242.00;5063918;28;19925;-60
2023/11/10 12:46:50;;;;;;;;;;;;;;;7.74;75.10;99244.19;5059956;28;20404;-58
2023/11/10 12:49:16;;;;;;;;;;;;;;;7.74;75.52;99245.00;5061538;28;19970;-53
2023/11/10 12:51:43;;;;;;;;;;;;;;;7.77;74.94;99243.75;5059576;28;19967;-59
2023/11/10 12:54:09;;;;;;;;;;;;;;;7.80;74.75;99248.59;5061844;28;20149;-57